sensor_id;sensor_type;location;lat;lon;timestamp;pressure;altitude;pressure_sealevel;temperature;humidity
47742;BME280;33504;52.066;6.096;2023-05-01T00:02:13;101770.25;;;12.94;38.93
47742;BME280;33504;52.066;6.096;2023-05-01T00:04:40;101770.05;;;12.82;39.38
47742;BME280;33504;52.066;6.096;2023-05-01T00:07:06;101767.58;;;12.81;39.22
47742;BME280;33504;52.066;6.096;2023-05-01T00:09:33;101763.00;;;12.79;39.25
47742;BME280;33504;52.066;6.096;2023-05-01T00:12:00;101760.79;;;12.79;39.17
47742;BME280;33504;52.066;6.096;2023-05-01T00:14:27;101758.60;;;12.50;39.35
47742;BME280;33504;52.066;6.096;2023-05-01T00:16:54;101749.72;;;12.75;39.28
47742;BME280;33504;52.066;6.096;2023-05-01T00:19:21;101748.37;;;12.75;39.19
47742;BME280;33504;52.066;6.096;2023-05-01T00:21:48;101744.44;;;12.71;39.25
47742;BME280;33504;52.066;6.096;2023-05-01T00:24:15;101740.35;;;12.69;39.35
47742;BME280;33504;52.066;6.096;2023-05-01T00:26:43;101738.48;;;12.68;39.32
47742;BME280;33504;52.066;6.096;2023-05-01T00:29:10;101736.88;;;12.65;39.35
47742;BME280;33504;52.066;6.096;2023-05-01T00:31:38;101731.03;;;12.64;39.41
47742;BME280;33504;52.066;6.096;2023-05-01T00:34:04;101725.54;;;12.56;39.58
47742;BME280;33504;52.066;6.096;2023-05-01T00:36:31;101724.06;;;12.50;39.75
47742;BME280;33504;52.066;6.096;2023-05-01T00:38:58;101720.49;;;12.26;39.67
47742;BME280;33504;52.066;6.096;2023-05-01T00:41:25;101716.02;;;12.51;39.46
47742;BME280;33504;52.066;6.096;2023-05-01T00:43:52;101711.92;;;12.47;39.50
47742;BME280;33504;52.066;6.096;2023-05-01T00:46:19;101712.88;;;12.45;39.59
47742;BME280;33504;52.066;6.096;2023-05-01T00:48:46;101708.89;;;12.42;39.53
47742;BME280;33504;52.066;6.096;2023-05-01T00:51:13;101705.27;;;12.59;39.70
47742;BME280;33504;52.066;6.096;2023-05-01T00:53:40;101696.69;;;12.54;39.86
47742;BME280;33504;52.066;6.096;2023-05-01T00:56:07;101698.92;;;12.49;39.99
47742;BME280;33504;52.066;6.096;2023-05-01T00:58:34;101697.54;;;12.42;40.02
47742;BME280;33504;52.066;6.096;2023-05-01T01:01:01;101694.41;;;12.35;40.24
47742;BME280;33504;52.066;6.096;2023-05-01T01:03:28;101692.67;;;12.10;40.36
47742;BME280;33504;52.066;6.096;2023-05-01T01:05:59;101690.71;;;12.09;40.47
47742;BME280;33504;52.066;6.096;2023-05-01T01:08:33;101684.18;;;12.11;40.38
47742;BME280;33504;52.066;6.096;2023-05-01T01:11:10;101679.59;;;12.33;40.48
47742;BME280;33504;52.066;6.096;2023-05-01T01:13:45;101676.81;;;12.56;40.49
47742;BME280;33504;52.066;6.096;2023-05-01T01:16:18;101671.48;;;12.10;40.52
47742;BME280;33504;52.066;6.096;2023-05-01T01:18:50;101669.86;;;12.35;40.40
47742;BME280;33504;52.066;6.096;2023-05-01T01:21:24;101667.38;;;12.11;40.34
47742;BME280;33504;52.066;6.096;2023-05-01T01:24:11;101668.13;;;12.29;40.28
47742;BME280;33504;52.066;6.096;2023-05-01T01:27:34;101664.82;;;12.95;40.48
47742;BME280;33504;52.066;6.096;2023-05-01T01:30:21;101661.64;;;12.21;40.60
47742;BME280;33504;52.066;6.096;2023-05-01T01:33:21;101660.31;;;12.23;40.57
47742;BME280;33504;52.066;6.096;2023-05-01T01:35:54;101656.43;;;12.25;40.55
47742;BME280;33504;52.066;6.096;2023-05-01T01:38:28;101653.96;;;12.28;40.41
47742;BME280;33504;52.066;6.096;2023-05-01T01:40:58;101652.95;;;12.33;40.44
47742;BME280;33504;52.066;6.096;2023-05-01T01:43:31;101652.92;;;12.38;40.29
47742;BME280;33504;52.066;6.096;2023-05-01T01:46:02;101648.13;;;12.16;40.22
47742;BME280;33504;52.066;6.096;2023-05-01T01:48:33;101644.63;;;12.61;40.35
47742;BME280;33504;52.066;6.096;2023-05-01T01:51:06;101643.46;;;12.40;40.38
47742;BME280;33504;52.066;6.096;2023-05-01T01:53:36;101637.16;;;12.17;40.40
47742;BME280;33504;52.066;6.096;2023-05-01T01:56:06;101634.40;;;12.16;40.41
47742;BME280;33504;52.066;6.096;2023-05-01T01:58:36;101627.61;;;12.59;40.44
47742;BME280;33504;52.066;6.096;2023-05-01T02:01:05;101625.64;;;12.31;40.67
47742;BME280;33504;52.066;6.096;2023-05-01T02:03:34;101621.19;;;12.27;40.61
47742;BME280;33504;52.066;6.096;2023-05-01T02:06:05;101620.22;;;12.23;40.77
47742;BME280;33504;52.066;6.096;2023-05-01T02:08:35;101614.06;;;12.18;40.91
47742;BME280;33504;52.066;6.096;2023-05-01T02:11:04;101612.37;;;12.34;40.87
47742;BME280;33504;52.066;6.096;2023-05-01T02:13:33;101608.29;;;12.28;41.05
47742;BME280;33504;52.066;6.096;2023-05-01T02:16:02;101603.70;;;12.21;41.13
47742;BME280;33504;52.066;6.096;2023-05-01T02:18:32;101603.96;;;11.70;41.21
47742;BME280;33504;52.066;6.096;2023-05-01T02:21:01;101601.13;;;11.89;41.22
47742;BME280;33504;52.066;6.096;2023-05-01T02:23:29;101598.75;;;11.87;41.08
47742;BME280;33504;52.066;6.096;2023-05-01T02:25:59;101596.31;;;12.05;41.24
47742;BME280;33504;52.066;6.096;2023-05-01T02:28:29;101591.38;;;11.76;41.23
47742;BME280;33504;52.066;6.096;2023-05-01T02:30:56;101588.05;;;11.98;41.10
47742;BME280;33504;52.066;6.096;2023-05-01T02:33:23;101587.58;;;12.00;41.06
47742;BME280;33504;52.066;6.096;2023-05-01T02:35:50;101585.80;;;12.00;41.00
47742;BME280;33504;52.066;6.096;2023-05-01T02:38:17;101582.70;;;11.79;40.92
47742;BME280;33504;52.066;6.096;2023-05-01T02:40:50;101578.92;;;11.99;41.10
47742;BME280;33504;52.066;6.096;2023-05-01T02:43:19;101576.44;;;12.02;41.01
47742;BME280;33504;52.066;6.096;2023-05-01T02:45:49;101573.51;;;12.04;40.99
47742;BME280;33504;52.066;6.096;2023-05-01T02:48:22;101572.54;;;12.06;40.96
47742;BME280;33504;52.066;6.096;2023-05-01T02:50:52;101567.74;;;12.10;40.92
47742;BME280;33504;52.066;6.096;2023-05-01T02:53:19;101564.02;;;11.89;40.90
47742;BME280;33504;52.066;6.096;2023-05-01T02:55:47;101562.36;;;11.91;40.93
47742;BME280;33504;52.066;6.096;2023-05-01T02:58:14;101560.31;;;11.94;40.87
47742;BME280;33504;52.066;6.096;2023-05-01T03:00:41;101557.77;;;11.96;40.84
47742;BME280;33504;52.066;6.096;2023-05-01T03:03:08;101555.59;;;11.72;40.86
47742;BME280;33504;52.066;6.096;2023-05-01T03:05:35;101551.25;;;12.19;41.03
47742;BME280;33504;52.066;6.096;2023-05-01T03:08:02;101551.32;;;12.20;41.06
47742;BME280;33504;52.066;6.096;2023-05-01T03:10:29;101549.27;;;11.73;40.95
47742;BME280;33504;52.066;6.096;2023-05-01T03:12:56;101548.63;;;12.22;41.05
47742;BME280;33504;52.066;6.096;2023-05-01T03:15:23;101542.35;;;12.06;40.96
47742;BME280;33504;52.066;6.096;2023-05-01T03:17:50;101535.08;;;12.31;40.89
47742;BME280;33504;52.066;6.096;2023-05-01T03:20:17;101532.92;;;11.93;41.02
47742;BME280;33504;52.066;6.096;2023-05-01T03:22:44;101530.59;;;12.19;40.89
47742;BME280;33504;52.066;6.096;2023-05-01T03:25:11;101525.96;;;12.21;40.94
47742;BME280;33504;52.066;6.096;2023-05-01T03:27:38;101524.22;;;12.24;40.85
47742;BME280;33504;52.066;6.096;2023-05-01T03:30:07;101520.61;;;12.24;40.90
47742;BME280;33504;52.066;6.096;2023-05-01T03:32:34;101519.79;;;12.05;40.83
47742;BME280;33504;52.066;6.096;2023-05-01T03:35:01;101514.40;;;12.12;40.79
47742;BME280;33504;52.066;6.096;2023-05-01T03:37:28;101513.75;;;12.34;40.87
47742;BME280;33504;52.066;6.096;2023-05-01T03:39:54;101513.76;;;12.14;40.74
47742;BME280;33504;52.066;6.096;2023-05-01T03:42:21;101511.06;;;12.31;40.92
47742;BME280;33504;52.066;6.096;2023-05-01T03:44:48;101511.26;;;12.10;40.93
47742;BME280;33504;52.066;6.096;2023-05-01T03:47:15;101510.07;;;12.56;41.05
47742;BME280;33504;52.066;6.096;2023-05-01T03:49:42;101507.38;;;12.38;40.94
47742;BME280;33504;52.066;6.096;2023-05-01T03:52:09;101503.35;;;12.39;40.89
47742;BME280;33504;52.066;6.096;2023-05-01T03:54:36;101499.49;;;12.21;40.83
47742;BME280;33504;52.066;6.096;2023-05-01T03:57:03;101496.12;;;12.45;40.75
47742;BME280;33504;52.066;6.096;2023-05-01T03:59:30;101493.54;;;12.26;40.92
47742;BME280;33504;52.066;6.096;2023-05-01T04:01:57;101492.11;;;12.26;40.93
47742;BME280;33504;52.066;6.096;2023-05-01T04:04:24;101490.12;;;12.28;40.90
47742;BME280;33504;52.066;6.096;2023-05-01T04:06:51;101492.50;;;12.50;40.89
47742;BME280;33504;52.066;6.096;2023-05-01T04:09:18;101493.50;;;12.20;40.65
47742;BME280;33504;52.066;6.096;2023-05-01T04:11:45;101493.11;;;12.17;40.25
47742;BME280;33504;52.066;6.096;2023-05-01T04:14:12;101493.19;;;12.13;40.12
47742;BME280;33504;52.066;6.096;2023-05-01T04:16:38;101493.75;;;12.04;40.14
47742;BME280;33504;52.066;6.096;2023-05-01T04:19:06;101490.95;;;12.24;40.04
47742;BME280;33504;52.066;6.096;2023-05-01T04:21:33;101493.46;;;11.99;39.89
47742;BME280;33504;52.066;6.096;2023-05-01T04:24:00;101492.17;;;11.92;40.05
47742;BME280;33504;52.066;6.096;2023-05-01T04:26:26;101492.64;;;11.88;40.05
47742;BME280;33504;52.066;6.096;2023-05-01T04:28:54;101489.40;;;11.81;40.21
47742;BME280;33504;52.066;6.096;2023-05-01T04:31:21;101480.46;;;11.86;40.11
47742;BME280;33504;52.066;6.096;2023-05-01T04:33:48;101478.81;;;12.35;40.02
47742;BME280;33504;52.066;6.096;2023-05-01T04:36:14;101479.12;;;12.14;40.01
47742;BME280;33504;52.066;6.096;2023-05-01T04:38:41;101477.48;;;12.16;39.99
47742;BME280;33504;52.066;6.096;2023-05-01T04:41:08;101478.82;;;12.40;40.02
47742;BME280;33504;52.066;6.096;2023-05-01T04:43:36;101480.09;;;11.98;40.16
47742;BME280;33504;52.066;6.096;2023-05-01T04:46:02;101479.27;;;12.26;40.44
47742;BME280;33504;52.066;6.096;2023-05-01T04:48:29;101478.95;;;12.30;40.44
47742;BME280;33504;52.066;6.096;2023-05-01T04:50:56;101477.09;;;12.07;40.41
47742;BME280;33504;52.066;6.096;2023-05-01T04:53:23;101478.95;;;12.27;40.38
47742;BME280;33504;52.066;6.096;2023-05-01T04:55:51;101479.75;;;12.05;40.43
47742;BME280;33504;52.066;6.096;2023-05-01T04:58:17;101478.13;;;12.04;40.54
47742;BME280;33504;52.066;6.096;2023-05-01T05:00:44;101479.76;;;12.27;40.44
47742;BME280;33504;52.066;6.096;2023-05-01T05:03:10;101482.95;;;12.27;40.44
47742;BME280;33504;52.066;6.096;2023-05-01T05:05:37;101481.30;;;12.09;40.48
47742;BME280;33504;52.066;6.096;2023-05-01T05:08:05;101479.41;;;12.30;40.37
47742;BME280;33504;52.066;6.096;2023-05-01T05:10:31;101475.94;;;12.38;40.65
47742;BME280;33504;52.066;6.096;2023-05-01T05:12:58;101473.99;;;12.38;40.46
47742;BME280;33504;52.066;6.096;2023-05-01T05:15:25;101477.02;;;12.67;40.43
47742;BME280;33504;52.066;6.096;2023-05-01T05:17:52;101479.25;;;12.47;40.38
47742;BME280;33504;52.066;6.096;2023-05-01T05:20:19;101478.66;;;12.26;40.35
47742;BME280;33504;52.066;6.096;2023-05-01T05:22:46;101476.73;;;12.26;40.34
47742;BME280;33504;52.066;6.096;2023-05-01T05:25:13;101474.45;;;12.32;40.41
47742;BME280;33504;52.066;6.096;2023-05-01T05:27:39;101480.40;;;12.55;40.34
47742;BME280;33504;52.066;6.096;2023-05-01T05:30:08;101484.18;;;12.32;40.31
47742;BME280;33504;52.066;6.096;2023-05-01T05:32:35;101484.90;;;12.02;40.27
47742;BME280;33504;52.066;6.096;2023-05-01T05:35:03;101483.98;;;12.26;40.24
47742;BME280;33504;52.066;6.096;2023-05-01T05:37:30;101478.55;;;12.29;40.30
47742;BME280;33504;52.066;6.096;2023-05-01T05:39:57;101480.56;;;12.35;40.24
47742;BME280;33504;52.066;6.096;2023-05-01T05:42:24;101480.21;;;12.39;40.27
47742;BME280;33504;52.066;6.096;2023-05-01T05:44:51;101474.66;;;12.65;40.11
47742;BME280;33504;52.066;6.096;2023-05-01T05:47:18;101474.30;;;12.54;40.23
47742;BME280;33504;52.066;6.096;2023-05-01T05:49:45;101470.40;;;12.58;40.16
47742;BME280;33504;52.066;6.096;2023-05-01T05:52:12;101469.22;;;12.62;40.05
47742;BME280;33504;52.066;6.096;2023-05-01T05:54:39;101471.26;;;12.74;40.12
47742;BME280;33504;52.066;6.096;2023-05-01T05:57:12;101468.95;;;12.84;40.14
47742;BME280;33504;52.066;6.096;2023-05-01T05:59:39;101471.95;;;12.90;40.09
47742;BME280;33504;52.066;6.096;2023-05-01T06:02:06;101468.72;;;12.67;40.16
47742;BME280;33504;52.066;6.096;2023-05-01T06:04:33;101465.71;;;12.71;40.32
47742;BME280;33504;52.066;6.096;2023-05-01T06:07:00;101463.22;;;13.06;40.42
47742;BME280;33504;52.066;6.096;2023-05-01T06:09:27;101464.93;;;12.89;40.34
47742;BME280;33504;52.066;6.096;2023-05-01T06:11:54;101461.68;;;13.31;40.42
47742;BME280;33504;52.066;6.096;2023-05-01T06:14:22;101458.98;;;12.94;40.07
47742;BME280;33504;52.066;6.096;2023-05-01T06:16:48;101460.38;;;13.10;40.01
47742;BME280;33504;52.066;6.096;2023-05-01T06:19:16;101459.55;;;13.46;39.62
47742;BME280;33504;52.066;6.096;2023-05-01T06:21:42;101458.51;;;13.57;39.08
47742;BME280;33504;52.066;6.096;2023-05-01T06:24:10;101457.51;;;13.42;39.10
47742;BME280;33504;52.066;6.096;2023-05-01T06:26:37;101458.62;;;13.79;39.21
47742;BME280;33504;52.066;6.096;2023-05-01T06:29:04;101459.27;;;13.72;39.15
47742;BME280;33504;52.066;6.096;2023-05-01T06:31:32;101461.20;;;13.84;39.05
47742;BME280;33504;52.066;6.096;2023-05-01T06:33:59;101461.82;;;13.99;38.49
47742;BME280;33504;52.066;6.096;2023-05-01T06:36:26;101457.98;;;14.07;38.25
47742;BME280;33504;52.066;6.096;2023-05-01T06:38:52;101455.63;;;13.95;38.36
47742;BME280;33504;52.066;6.096;2023-05-01T06:41:19;101459.09;;;14.37;38.15
47742;BME280;33504;52.066;6.096;2023-05-01T06:43:47;101458.18;;;14.35;38.10
47742;BME280;33504;52.066;6.096;2023-05-01T06:46:13;101459.48;;;14.30;38.11
47742;BME280;33504;52.066;6.096;2023-05-01T06:48:40;101455.50;;;14.71;37.81
47742;BME280;33504;52.066;6.096;2023-05-01T06:51:07;101457.06;;;14.48;37.51
47742;BME280;33504;52.066;6.096;2023-05-01T06:53:35;101461.01;;;14.61;37.49
47742;BME280;33504;52.066;6.096;2023-05-01T06:56:02;101464.70;;;14.64;37.30
47742;BME280;33504;52.066;6.096;2023-05-01T06:58:28;101462.06;;;14.61;37.30
47742;BME280;33504;52.066;6.096;2023-05-01T07:00:55;101461.67;;;14.40;37.65
47742;BME280;33504;52.066;6.096;2023-05-01T07:03:23;101460.82;;;14.39;37.61
47742;BME280;33504;52.066;6.096;2023-05-01T07:05:50;101462.41;;;14.48;37.67
47742;BME280;33504;52.066;6.096;2023-05-01T07:08:16;101458.28;;;14.55;37.88
47742;BME280;33504;52.066;6.096;2023-05-01T07:10:44;101463.21;;;14.68;37.75
47742;BME280;33504;52.066;6.096;2023-05-01T07:13:10;101461.21;;;14.68;37.75
47742;BME280;33504;52.066;6.096;2023-05-01T07:15:38;101455.97;;;14.47;37.68
47742;BME280;33504;52.066;6.096;2023-05-01T07:18:05;101453.92;;;14.47;37.50
47742;BME280;33504;52.066;6.096;2023-05-01T07:20:31;101451.92;;;14.76;37.68
47742;BME280;33504;52.066;6.096;2023-05-01T07:22:59;101454.86;;;14.55;37.70
47742;BME280;33504;52.066;6.096;2023-05-01T07:25:26;101451.89;;;14.60;37.73
47742;BME280;33504;52.066;6.096;2023-05-01T07:27:52;101452.98;;;14.59;37.82
47742;BME280;33504;52.066;6.096;2023-05-01T07:30:20;101455.63;;;14.88;37.72
47742;BME280;33504;52.066;6.096;2023-05-01T07:32:47;101455.05;;;14.71;37.82
47742;BME280;33504;52.066;6.096;2023-05-01T07:35:14;101454.52;;;15.02;38.03
47742;BME280;33504;52.066;6.096;2023-05-01T07:37:42;101454.88;;;14.89;37.90
47742;BME280;33504;52.066;6.096;2023-05-01T07:40:09;101455.01;;;14.71;37.58
47742;BME280;33504;52.066;6.096;2023-05-01T07:42:36;101457.46;;;14.93;37.47
47742;BME280;33504;52.066;6.096;2023-05-01T07:45:04;101454.82;;;14.97;37.36
47742;BME280;33504;52.066;6.096;2023-05-01T07:47:31;101449.51;;;14.97;37.12
47742;BME280;33504;52.066;6.096;2023-05-01T07:49:58;101443.48;;;15.17;37.13
47742;BME280;33504;52.066;6.096;2023-05-01T07:52:24;101440.42;;;15.06;37.23
47742;BME280;33504;52.066;6.096;2023-05-01T07:54:51;101438.91;;;15.11;37.23
47742;BME280;33504;52.066;6.096;2023-05-01T07:57:19;101438.34;;;15.22;36.60
47742;BME280;33504;52.066;6.096;2023-05-01T07:59:46;101439.16;;;15.10;36.46
47742;BME280;33504;52.066;6.096;2023-05-01T08:02:15;101438.98;;;15.22;36.19
47742;BME280;33504;52.066;6.096;2023-05-01T08:04:42;101439.16;;;15.29;36.19
47742;BME280;33504;52.066;6.096;2023-05-01T08:07:10;101437.81;;;15.58;35.86
47742;BME280;33504;52.066;6.096;2023-05-01T08:09:37;101440.12;;;15.26;35.32
47742;BME280;33504;52.066;6.096;2023-05-01T08:12:04;101440.43;;;15.46;35.03
47742;BME280;33504;52.066;6.096;2023-05-01T08:14:31;101440.00;;;15.97;35.23
47742;BME280;33504;52.066;6.096;2023-05-01T08:16:58;101441.38;;;16.00;35.56
47742;BME280;33504;52.066;6.096;2023-05-01T08:19:26;101437.43;;;16.29;35.18
47742;BME280;33504;52.066;6.096;2023-05-01T08:21:52;101434.52;;;16.59;35.11
47742;BME280;33504;52.066;6.096;2023-05-01T08:24:19;101430.72;;;16.31;34.55
47742;BME280;33504;52.066;6.096;2023-05-01T08:26:46;101429.01;;;16.40;34.48
47742;BME280;33504;52.066;6.096;2023-05-01T08:29:13;101424.64;;;17.26;34.39
47742;BME280;33504;52.066;6.096;2023-05-01T08:31:40;101423.70;;;17.20;34.02
47742;BME280;33504;52.066;6.096;2023-05-01T08:34:07;101425.68;;;17.45;34.37
47742;BME280;33504;52.066;6.096;2023-05-01T08:36:34;101426.68;;;17.68;33.98
47742;BME280;33504;52.066;6.096;2023-05-01T08:39:01;101426.02;;;17.72;33.66
47742;BME280;33504;52.066;6.096;2023-05-01T08:41:29;101421.33;;;17.91;33.33
47742;BME280;33504;52.066;6.096;2023-05-01T08:43:59;101421.41;;;18.16;33.66
47742;BME280;33504;52.066;6.096;2023-05-01T08:46:35;101421.55;;;18.46;33.13
47742;BME280;33504;52.066;6.096;2023-05-01T08:49:04;101421.58;;;18.24;32.34
47742;BME280;33504;52.066;6.096;2023-05-01T08:51:34;101418.13;;;18.37;31.71
47742;BME280;33504;52.066;6.096;2023-05-01T08:54:02;101417.62;;;18.58;31.57
47742;BME280;33504;52.066;6.096;2023-05-01T08:56:35;101417.50;;;18.22;31.79
47742;BME280;33504;52.066;6.096;2023-05-01T08:59:03;101416.08;;;18.41;32.63
47742;BME280;33504;52.066;6.096;2023-05-01T09:01:32;101415.50;;;18.67;32.71
47742;BME280;33504;52.066;6.096;2023-05-01T09:04:01;101415.46;;;18.28;33.01
47742;BME280;33504;52.066;6.096;2023-05-01T09:06:29;101416.90;;;18.25;33.34
47742;BME280;33504;52.066;6.096;2023-05-01T09:08:56;101422.17;;;18.82;32.75
47742;BME280;33504;52.066;6.096;2023-05-01T09:11:23;101420.98;;;18.86;32.25
47742;BME280;33504;52.066;6.096;2023-05-01T09:13:51;101420.94;;;19.35;32.22
47742;BME280;33504;52.066;6.096;2023-05-01T09:16:18;101419.48;;;19.71;31.87
47742;BME280;33504;52.066;6.096;2023-05-01T09:18:47;101418.74;;;19.63;31.41
47742;BME280;33504;52.066;6.096;2023-05-01T09:21:13;101416.80;;;19.66;31.11
47742;BME280;33504;52.066;6.096;2023-05-01T09:23:40;101419.40;;;20.33;30.39
47742;BME280;33504;52.066;6.096;2023-05-01T09:26:07;101415.09;;;20.62;30.07
47742;BME280;33504;52.066;6.096;2023-05-01T09:28:42;101414.47;;;20.56;29.94
47742;BME280;33504;52.066;6.096;2023-05-01T09:31:27;101413.08;;;21.46;30.26
47742;BME280;33504;52.066;6.096;2023-05-01T09:33:57;101412.81;;;21.55;28.86
47742;BME280;33504;52.066;6.096;2023-05-01T09:36:26;101410.16;;;22.23;28.31
47742;BME280;33504;52.066;6.096;2023-05-01T09:38:53;101408.14;;;22.15;28.10
47742;BME280;33504;52.066;6.096;2023-05-01T09:41:20;101409.40;;;22.46;26.96
47742;BME280;33504;52.066;6.096;2023-05-01T09:43:49;101406.12;;;22.31;26.35
47742;BME280;33504;52.066;6.096;2023-05-01T09:46:17;101402.21;;;22.43;26.70
47742;BME280;33504;52.066;6.096;2023-05-01T09:48:52;101399.22;;;22.09;26.80
47742;BME280;33504;52.066;6.096;2023-05-01T09:51:21;101399.99;;;22.45;26.95
47742;BME280;33504;52.066;6.096;2023-05-01T09:53:49;101399.84;;;22.38;27.24
47742;BME280;33504;52.066;6.096;2023-05-01T09:56:18;101402.05;;;22.15;27.44
47742;BME280;33504;52.066;6.096;2023-05-01T09:58:45;101403.81;;;22.34;27.69
47742;BME280;33504;52.066;6.096;2023-05-01T10:01:12;101404.34;;;21.79;27.51
47742;BME280;33504;52.066;6.096;2023-05-01T10:03:41;101402.87;;;22.05;27.65
47742;BME280;33504;52.066;6.096;2023-05-01T10:06:09;101401.01;;;22.39;26.55
47742;BME280;33504;52.066;6.096;2023-05-01T10:08:45;101400.43;;;22.60;26.56
47742;BME280;33504;52.066;6.096;2023-05-01T10:11:12;101394.90;;;22.22;25.39
47742;BME280;33504;52.066;6.096;2023-05-01T10:13:40;101394.78;;;23.00;25.75
47742;BME280;33504;52.066;6.096;2023-05-01T10:16:27;101394.32;;;23.51;25.22
47742;BME280;33504;52.066;6.096;2023-05-01T10:18:55;101395.65;;;23.52;25.76
47742;BME280;33504;52.066;6.096;2023-05-01T10:21:22;101390.04;;;23.77;25.94
47742;BME280;33504;52.066;6.096;2023-05-01T10:23:50;101389.02;;;23.83;25.74
47742;BME280;33504;52.066;6.096;2023-05-01T10:26:18;101388.79;;;23.78;25.53
47742;BME280;33504;52.066;6.096;2023-05-01T10:28:46;101385.65;;;23.94;24.58
47742;BME280;33504;52.066;6.096;2023-05-01T10:31:15;101383.72;;;24.86;24.96
47742;BME280;33504;52.066;6.096;2023-05-01T10:33:42;101382.48;;;24.77;24.85
47742;BME280;33504;52.066;6.096;2023-05-01T10:36:14;101378.99;;;24.64;24.29
47742;BME280;33504;52.066;6.096;2023-05-01T10:38:43;101378.42;;;24.73;23.96
47742;BME280;33504;52.066;6.096;2023-05-01T10:41:11;101378.39;;;25.07;23.95
47742;BME280;33504;52.066;6.096;2023-05-01T10:43:38;101376.95;;;25.09;23.94
47742;BME280;33504;52.066;6.096;2023-05-01T10:46:38;101376.52;;;25.85;25.01
47742;BME280;33504;52.066;6.096;2023-05-01T10:49:05;101376.96;;;25.62;24.52
47742;BME280;33504;52.066;6.096;2023-05-01T10:51:32;101377.53;;;25.49;23.43
47742;BME280;33504;52.066;6.096;2023-05-01T10:54:24;101378.32;;;25.52;23.06
47742;BME280;33504;52.066;6.096;2023-05-01T10:56:52;101377.85;;;25.59;22.92
47742;BME280;33504;52.066;6.096;2023-05-01T10:59:19;101379.98;;;25.65;22.85
47742;BME280;33504;52.066;6.096;2023-05-01T11:01:47;101378.61;;;25.48;22.57
47742;BME280;33504;52.066;6.096;2023-05-01T11:04:48;101377.33;;;26.41;22.42
47742;BME280;33504;52.066;6.096;2023-05-01T11:07:17;101377.26;;;25.31;22.58
47742;BME280;33504;52.066;6.096;2023-05-01T11:09:45;101378.99;;;25.26;22.57
47742;BME280;33504;52.066;6.096;2023-05-01T11:12:13;101381.09;;;25.56;23.10
47742;BME280;33504;52.066;6.096;2023-05-01T11:15:25;101377.87;;;26.17;23.16
47742;BME280;33504;52.066;6.096;2023-05-01T11:17:53;101376.94;;;25.38;23.22
47742;BME280;33504;52.066;6.096;2023-05-01T11:20:52;101373.20;;;25.74;23.47
47742;BME280;33504;52.066;6.096;2023-05-01T11:23:21;101372.68;;;25.10;23.49
47742;BME280;33504;52.066;6.096;2023-05-01T11:25:48;101373.58;;;25.07;23.27
47742;BME280;33504;52.066;6.096;2023-05-01T11:28:19;101374.08;;;24.49;22.85
47742;BME280;33504;52.066;6.096;2023-05-01T11:30:46;101374.47;;;24.15;23.59
47742;BME280;33504;52.066;6.096;2023-05-01T11:33:21;101372.67;;;24.36;24.16
47742;BME280;33504;52.066;6.096;2023-05-01T11:35:57;101375.52;;;24.20;24.69
47742;BME280;33504;52.066;6.096;2023-05-01T11:38:24;101373.63;;;24.42;24.45
47742;BME280;33504;52.066;6.096;2023-05-01T11:40:53;101372.66;;;24.06;24.61
47742;BME280;33504;52.066;6.096;2023-05-01T11:43:22;101378.10;;;24.27;24.89
47742;BME280;33504;52.066;6.096;2023-05-01T11:45:51;101375.62;;;24.37;24.71
47742;BME280;33504;52.066;6.096;2023-05-01T11:48:19;101376.47;;;24.28;24.92
47742;BME280;33504;52.066;6.096;2023-05-01T11:50:47;101378.43;;;24.33;24.84
47742;BME280;33504;52.066;6.096;2023-05-01T11:53:14;101373.36;;;23.81;25.07
47742;BME280;33504;52.066;6.096;2023-05-01T11:55:41;101371.17;;;24.14;25.12
47742;BME280;33504;52.066;6.096;2023-05-01T11:58:09;101371.94;;;24.43;25.16
47742;BME280;33504;52.066;6.096;2023-05-01T12:00:38;101371.39;;;24.22;25.03
47742;BME280;33504;52.066;6.096;2023-05-01T12:03:06;101366.52;;;24.81;24.66
47742;BME280;33504;52.066;6.096;2023-05-01T12:05:35;101368.95;;;24.65;24.66
47742;BME280;33504;52.066;6.096;2023-05-01T12:08:08;101366.98;;;24.86;24.04
47742;BME280;33504;52.066;6.096;2023-05-01T12:10:36;101365.49;;;25.38;22.65
47742;BME280;33504;52.066;6.096;2023-05-01T12:13:05;101365.61;;;25.54;23.85
47742;BME280;33504;52.066;6.096;2023-05-01T12:15:35;101368.54;;;26.07;21.49
47742;BME280;33504;52.066;6.096;2023-05-01T12:18:03;101365.67;;;26.26;20.68
47742;BME280;33504;52.066;6.096;2023-05-01T12:20:36;101367.94;;;26.15;20.33
47742;BME280;33504;52.066;6.096;2023-05-01T12:23:07;101371.83;;;26.04;20.87
47742;BME280;33504;52.066;6.096;2023-05-01T12:25:35;101375.87;;;25.95;21.48
47742;BME280;33504;52.066;6.096;2023-05-01T12:28:07;101371.85;;;25.77;21.44
47742;BME280;33504;52.066;6.096;2023-05-01T12:30:34;101370.00;;;25.73;21.72
47742;BME280;33504;52.066;6.096;2023-05-01T12:33:09;101373.24;;;25.97;21.65
47742;BME280;33504;52.066;6.096;2023-05-01T12:35:37;101374.74;;;26.17;21.06
47742;BME280;33504;52.066;6.096;2023-05-01T12:38:11;101376.89;;;25.99;21.31
47742;BME280;33504;52.066;6.096;2023-05-01T12:40:39;101377.63;;;25.44;21.49
47742;BME280;33504;52.066;6.096;2023-05-01T12:43:06;101377.41;;;25.17;21.29
47742;BME280;33504;52.066;6.096;2023-05-01T12:45:40;101375.08;;;24.95;21.53
47742;BME280;33504;52.066;6.096;2023-05-01T12:48:11;101368.67;;;24.83;21.91
47742;BME280;33504;52.066;6.096;2023-05-01T12:50:38;101371.71;;;25.06;22.16
47742;BME280;33504;52.066;6.096;2023-05-01T12:53:06;101371.14;;;25.20;22.01
47742;BME280;33504;52.066;6.096;2023-05-01T12:55:42;101371.80;;;25.04;22.33
47742;BME280;33504;52.066;6.096;2023-05-01T12:58:09;101372.10;;;25.06;21.80
47742;BME280;33504;52.066;6.096;2023-05-01T13:00:45;101371.78;;;24.66;21.82